FlightSource - Aviation Photo Database

World Wide Airport Lookup


Search by ICAO
Or
Search by City

FlightSource.ca - Aviation Photo Database - Southwest Oregon Regional Airport Information
Airport Identification
Name: Southwest Oregon Regional Airport
ICAO: KOTH
IATA: OTH
Airport Location
City: North Bend
Region: OR
Country: United States
Continent: North America
Latitude: 43.4171
Longitude: -124.246
Airport Information
Type: Medium Airport
Elevation: 17 Feet ASL
Flight Status: KOTH
More Info: KOTH
Airport Weather    
Metar: KOTH 210814Z AUTO 13006KT 1/2SM -RA FG OVC002 10/10 A2995 RMK AO2 P0000 RVRNO $
TAF:


Advertisement